createdAt,value
2022-12-03T00:01:48.865Z,103094.75
2022-12-03T00:06:51.630Z,103100.06
2022-12-03T00:11:55.002Z,103077.69
2022-12-03T00:16:59.436Z,103074.59
2022-12-03T00:22:02.140Z,103104.31
2022-12-03T00:27:04.850Z,103085.22
2022-12-03T00:32:07.651Z,103104.25
2022-12-03T00:37:10.304Z,103100.22
2022-12-03T00:42:13.110Z,103100.06
2022-12-03T00:47:15.771Z,103086.06
2022-12-03T00:52:18.487Z,103088.50
2022-12-03T00:57:21.108Z,103029.34
2022-12-03T01:02:23.937Z,103065.97
2022-12-03T01:07:26.746Z,103078.84
2022-12-03T01:12:29.425Z,103082.25
2022-12-03T01:17:32.282Z,103073.25
2022-12-03T01:22:36.585Z,103061.59
2022-12-03T01:27:39.209Z,103092.75
2022-12-03T01:32:41.916Z,103063.47
2022-12-03T01:37:44.594Z,103081.38
2022-12-03T01:42:47.318Z,103097.63
2022-12-03T01:47:50.094Z,103091.22
2022-12-03T01:52:55.778Z,103102.44
2022-12-03T01:58:00.854Z,103103.41
2022-12-03T02:03:11.197Z,103093.94
2022-12-03T02:08:37.438Z,103074.16
2022-12-03T02:13:40.525Z,103098.13
2022-12-03T02:18:44.004Z,103087.47
2022-12-03T02:24:02.087Z,103087.25
2022-12-03T02:29:04.748Z,103084.16
2022-12-03T02:34:08.153Z,103091.03
2022-12-03T02:39:10.901Z,103106.06
2022-12-03T02:44:13.675Z,103101.44
2022-12-03T02:49:16.382Z,103090.19
2022-12-03T02:54:19.145Z,103102.31
2022-12-03T02:59:21.904Z,103098.06
2022-12-03T03:04:25.271Z,103106.25
2022-12-03T03:09:27.980Z,103075.94
2022-12-03T03:14:30.724Z,103075.34
2022-12-03T03:19:33.589Z,103080.66
2022-12-03T03:24:36.259Z,103076.88
2022-12-03T03:29:38.970Z,103039.56
2022-12-03T03:34:45.726Z,103069.50
2022-12-03T03:39:48.660Z,103074.22
2022-12-03T03:44:51.735Z,103066.84
2022-12-03T03:49:55.067Z,103070.13
2022-12-03T03:54:57.713Z,103065.28
2022-12-03T04:00:00.201Z,103066.34
2022-12-03T04:05:02.980Z,103065.16
2022-12-03T04:10:26.414Z,103055.78
2022-12-03T04:15:30.301Z,103056.25
2022-12-03T04:20:33.229Z,103042.47
2022-12-03T04:25:54.637Z,103049.81
2022-12-03T04:30:57.372Z,103041.94
2022-12-03T04:36:00.240Z,103042.38
2022-12-03T04:41:04.428Z,103038.22
2022-12-03T04:46:07.249Z,103037.22
2022-12-03T04:51:09.905Z,103034.97
2022-12-03T04:56:12.613Z,103040.16
2022-12-03T05:01:15.422Z,103035.44
2022-12-03T05:06:17.904Z,103023.47
2022-12-03T05:11:20.534Z,103012.38
2022-12-03T05:16:23.279Z,103024.50
2022-12-03T05:21:26.075Z,103027.88
2022-12-03T05:26:28.613Z,103025.84
2022-12-03T05:31:31.049Z,103015.19
2022-12-03T05:36:33.783Z,103011.16
2022-12-03T05:41:55.059Z,103010.28
2022-12-03T05:46:57.793Z,102999.47
2022-12-03T05:52:00.560Z,102978.63
2022-12-03T05:57:04.205Z,102999.94
2022-12-03T06:02:06.964Z,102997.53
2022-12-03T06:07:13.814Z,102989.81
2022-12-03T06:12:17.183Z,102991.25
2022-12-03T06:17:19.759Z,102985.47
2022-12-03T06:22:22.521Z,102988.03
2022-12-03T06:27:27.232Z,102984.13
2022-12-03T06:32:29.955Z,102939.81
2022-12-03T06:37:32.578Z,102978.16
2022-12-03T06:42:35.312Z,102968.50
2022-12-03T06:47:38.183Z,102969.19
2022-12-03T06:52:40.929Z,102963.00
2022-12-03T06:57:43.789Z,102959.38
2022-12-03T07:02:46.776Z,102956.34
2022-12-03T07:07:52.443Z,102966.69
2022-12-03T07:12:55.370Z,102961.25
2022-12-03T07:17:57.999Z,102944.06
2022-12-03T07:23:00.652Z,102947.47
2022-12-03T07:28:03.470Z,102924.59
2022-12-03T07:33:06.242Z,102952.47
2022-12-03T07:38:09.203Z,102947.91
2022-12-03T07:43:12.037Z,102938.59
2022-12-03T07:48:14.780Z,102932.53
2022-12-03T07:53:17.501Z,102915.75
2022-12-03T07:58:20.200Z,102926.19
2022-12-03T08:03:23.489Z,102918.69
2022-12-03T08:08:26.195Z,102920.38
2022-12-03T08:13:29.239Z,102880.06
2022-12-03T08:18:31.926Z,102914.84
2022-12-03T08:23:35.154Z,102917.03
2022-12-03T08:28:37.719Z,102913.22
2022-12-03T08:33:42.173Z,102908.59
2022-12-03T08:39:00.374Z,102892.94
2022-12-03T08:44:19.993Z,102902.66
2022-12-03T08:49:23.159Z,102901.78
2022-12-03T08:54:26.583Z,102874.97
2022-12-03T08:59:32.093Z,102891.72
2022-12-03T09:04:42.043Z,102882.47
2022-12-03T09:09:44.707Z,102891.59
2022-12-03T09:14:47.473Z,102889.28
2022-12-03T09:19:51.990Z,102898.78
2022-12-03T09:24:54.871Z,102893.13
2022-12-03T09:29:57.583Z,102900.44
2022-12-03T09:35:00.265Z,102900.13
2022-12-03T09:40:03.009Z,102901.47
2022-12-03T09:45:11.148Z,102893.53
2022-12-03T09:50:20.628Z,102906.22
2022-12-03T09:55:25.677Z,102909.16
2022-12-03T10:00:30.680Z,102905.53
2022-12-03T10:05:34.853Z,102905.53
2022-12-03T10:10:39.950Z,102898.63
2022-12-03T10:15:42.822Z,102879.00
2022-12-03T10:20:45.817Z,102905.06
2022-12-03T10:25:57.487Z,102902.88
2022-12-03T10:31:02.025Z,102885.50
2022-12-03T10:36:24.051Z,102895.47
2022-12-03T10:41:28.424Z,102891.97
2022-12-03T10:46:31.214Z,102889.03
2022-12-03T10:51:34.112Z,102874.38
2022-12-03T10:56:36.620Z,102871.69
2022-12-03T11:01:39.352Z,102863.19
2022-12-03T11:06:41.831Z,102859.81
2022-12-03T11:11:44.680Z,102854.84
2022-12-03T11:16:47.180Z,102847.78
2022-12-03T11:22:13.767Z,102844.75
2022-12-03T11:27:19.027Z,102844.25
2022-12-03T11:32:40.113Z,102848.34
2022-12-03T11:37:42.846Z,102847.63
2022-12-03T11:42:47.271Z,102804.25
2022-12-03T11:47:59.117Z,102836.56
2022-12-03T11:53:03.319Z,102845.94
2022-12-03T11:58:22.172Z,102843.88
2022-12-03T12:03:33.948Z,102836.84
2022-12-03T12:08:42.336Z,102839.00
2022-12-03T12:13:45.200Z,102835.00
2022-12-03T12:18:55.741Z,102827.22
2022-12-03T12:24:31.840Z,102829.88
2022-12-03T12:29:35.640Z,102809.66
2022-12-03T12:34:43.088Z,102767.59
2022-12-03T12:39:46.107Z,102802.69
2022-12-03T12:44:50.541Z,102788.00
2022-12-03T12:49:53.863Z,102792.78
2022-12-03T12:55:01.646Z,102793.50
2022-12-03T13:00:08.049Z,102780.50
2022-12-03T13:05:12.945Z,102775.19
2022-12-03T13:10:36.193Z,102781.94
2022-12-03T13:15:49.594Z,102781.41
2022-12-03T13:20:52.981Z,102776.34
2022-12-03T13:26:03.753Z,102768.50
2022-12-03T13:31:30.138Z,102783.03
2022-12-03T13:36:38.520Z,102772.53
2022-12-03T13:42:01.035Z,102764.25
2022-12-03T13:47:13.641Z,102771.13
2022-12-03T13:52:20.017Z,102750.13
2022-12-03T13:57:23.376Z,102767.16
2022-12-03T14:02:26.326Z,102744.06
2022-12-03T14:07:29.237Z,102703.66
2022-12-03T14:12:34.142Z,102723.50
2022-12-03T14:17:37.130Z,102733.97
2022-12-03T14:22:39.851Z,102683.06
2022-12-03T14:27:42.628Z,102721.88
2022-12-03T14:32:45.577Z,102723.84
2022-12-03T14:37:48.281Z,102713.91
2022-12-03T14:42:50.993Z,102719.75
2022-12-03T14:47:53.657Z,102717.16
2022-12-03T14:52:56.432Z,102680.34
2022-12-03T14:57:59.073Z,102702.28
2022-12-03T15:03:01.894Z,102686.31
2022-12-03T15:08:04.943Z,102692.97
2022-12-03T15:13:07.642Z,102692.16
2022-12-03T15:18:10.366Z,102685.13
2022-12-03T15:23:14.667Z,102674.66
2022-12-03T15:28:17.838Z,102663.75
2022-12-03T15:33:20.692Z,102661.94
2022-12-03T15:38:23.433Z,102664.16
2022-12-03T15:43:26.140Z,102673.81
2022-12-03T15:48:28.839Z,102670.56
2022-12-03T15:53:31.540Z,102667.50
2022-12-03T15:58:34.610Z,102652.25
2022-12-03T16:03:37.456Z,102649.47
2022-12-03T16:08:40.314Z,102656.88
2022-12-03T16:13:42.952Z,102650.47
2022-12-03T16:18:45.756Z,102648.38
2022-12-03T16:23:48.404Z,102652.72
2022-12-03T16:28:51.165Z,102623.75
2022-12-03T16:33:55.214Z,102625.22
2022-12-03T16:38:58.479Z,102629.31
2022-12-03T16:44:03.438Z,102646.09
2022-12-03T16:49:07.401Z,102636.53
2022-12-03T16:54:12.088Z,102635.34
2022-12-03T16:59:14.710Z,102637.16
2022-12-03T17:04:32.589Z,102640.78
2022-12-03T17:09:35.273Z,102635.34
2022-12-03T17:14:37.905Z,102629.19
2022-12-03T17:19:40.570Z,102620.44
2022-12-03T17:24:43.267Z,102631.28
2022-12-03T17:29:45.913Z,102619.44
2022-12-03T17:34:48.667Z,102637.63
2022-12-03T17:39:52.708Z,102618.09
2022-12-03T17:44:55.572Z,102654.97
2022-12-03T17:50:00.014Z,102643.75
2022-12-03T17:55:11.719Z,102642.56
2022-12-03T18:00:15.964Z,102627.69
2022-12-03T18:05:18.971Z,102633.09
2022-12-03T18:10:21.768Z,102621.28
2022-12-03T18:15:24.426Z,102610.47
2022-12-03T18:20:27.195Z,102628.66
2022-12-03T18:25:30.186Z,102624.22
2022-12-03T18:30:32.849Z,102619.09
2022-12-03T18:35:35.720Z,102623.97
2022-12-03T18:40:38.688Z,102621.38
2022-12-03T18:45:42.388Z,102608.63
2022-12-03T18:50:46.537Z,102604.44
2022-12-03T18:55:49.417Z,102613.19
2022-12-03T19:00:53.902Z,102616.81
2022-12-03T19:05:57.553Z,102616.81
2022-12-03T19:11:00.777Z,102602.00
2022-12-03T19:16:06.033Z,102602.84
2022-12-03T19:21:13.649Z,102596.72
2022-12-03T19:26:16.349Z,102586.06
2022-12-03T19:31:19.316Z,102587.53
2022-12-03T19:36:25.900Z,102580.41
2022-12-03T19:41:31.015Z,102599.84
2022-12-03T19:46:33.890Z,102581.47
2022-12-03T19:51:37.065Z,102584.38
2022-12-03T19:56:39.809Z,102586.38
2022-12-03T20:01:43.675Z,102596.38
2022-12-03T20:06:46.400Z,102597.50
2022-12-03T20:11:51.377Z,102588.91
2022-12-03T20:16:54.134Z,102578.94
2022-12-03T20:22:02.292Z,102593.03
2022-12-03T20:27:05.327Z,102587.50
2022-12-03T20:32:08.032Z,102574.91
2022-12-03T20:37:10.694Z,102586.97
2022-12-03T20:42:13.390Z,102587.50
2022-12-03T20:47:16.869Z,102580.22
2022-12-03T20:52:19.598Z,102488.31
2022-12-03T20:57:22.226Z,102558.06
2022-12-03T21:02:25.082Z,102567.63
2022-12-03T21:07:27.950Z,102552.94
2022-12-03T21:12:30.711Z,102522.41
2022-12-03T21:17:34.036Z,102543.09
2022-12-03T21:22:36.899Z,102531.66
2022-12-03T21:27:39.542Z,102540.00
2022-12-03T21:32:42.193Z,102545.50
2022-12-03T21:37:44.981Z,102550.28
2022-12-03T21:42:47.892Z,102529.94
2022-12-03T21:47:50.558Z,102537.56
2022-12-03T21:52:53.353Z,102526.75
2022-12-03T21:57:56.028Z,102524.50
2022-12-03T22:02:58.690Z,102522.06
2022-12-03T22:08:01.430Z,102517.75
2022-12-03T22:13:04.123Z,102513.63
2022-12-03T22:18:06.899Z,102500.84
2022-12-03T22:23:09.540Z,102461.47
2022-12-03T22:28:12.216Z,102496.44
2022-12-03T22:33:14.871Z,102504.94
2022-12-03T22:38:17.567Z,102505.22
2022-12-03T22:43:20.910Z,102490.34
2022-12-03T22:48:24.389Z,102500.63
2022-12-03T22:53:27.137Z,102482.88
2022-12-03T22:58:29.841Z,102496.72
2022-12-03T23:03:32.465Z,102502.97
2022-12-03T23:08:35.414Z,102489.50
2022-12-03T23:13:38.101Z,102515.69
2022-12-03T23:18:40.798Z,102497.88
2022-12-03T23:23:43.492Z,102504.84
2022-12-03T23:28:46.652Z,102505.94
2022-12-03T23:33:49.740Z,102498.47
2022-12-03T23:38:52.556Z,102500.25
2022-12-03T23:43:55.316Z,102502.44
2022-12-03T23:48:59.250Z,102514.50
2022-12-03T23:54:02.004Z,102494.47
2022-12-03T23:59:04.631Z,102496.31
